Time;durP1;ratioP1;P1;durP2;ratioP2;P2;SDS_P1;SDS_P2;PMS_P1;PMS_P2;Temp;Humidity;BMP_temperature;BMP_pressure;BME280_temperature;BME280_humidity;BME280_pressure;Samples;Min_cycle;Max_cycle;Signal;HPM_P1;HPM_P2
2021/05/11 00:02:07;;;;;;;7.50;6.70;;;;;;;15.76;65.87;95866.97;5034628;28;20682;-69
2021/05/11 00:04:33;;;;;;;8.10;6.40;;;;;;;15.61;66.40;95877.09;5034141;28;20207;-69
2021/05/11 00:06:59;;;;;;;7.00;6.30;;;;;;;15.53;66.92;95878.16;5026601;28;20678;-69
2021/05/11 00:09:24;;;;;;;6.70;6.10;;;;;;;15.50;67.15;95876.75;5026300;28;20229;-69
2021/05/11 00:11:50;;;;;;;6.80;6.10;;;;;;;15.47;67.25;95882.47;5033140;28;20180;-69
2021/05/11 00:14:16;;;;;;;7.37;6.33;;;;;;;15.55;66.85;95872.66;5015025;28;20660;-70
2021/05/11 00:16:41;;;;;;;8.83;7.90;;;;;;;15.05;68.89;95871.59;5033123;28;20237;-69
2021/05/11 00:19:09;;;;;;;9.70;8.07;;;;;;;15.23;68.45;95864.78;5033428;28;20180;-69
2021/05/11 00:21:35;;;;;;;8.23;7.17;;;;;;;15.30;68.01;95860.25;5032630;28;20190;-70
2021/05/11 00:24:01;;;;;;;8.33;6.90;;;;;;;15.26;67.93;95865.16;5034772;28;20787;-69
2021/05/11 00:26:27;;;;;;;9.50;7.67;;;;;;;15.27;68.14;95868.59;5032981;28;20204;-71
2021/05/11 00:28:52;;;;;;;10.10;7.30;;;;;;;15.03;69.08;95868.38;5032827;28;20187;-71
2021/05/11 00:31:18;;;;;;;8.77;7.87;;;;;;;14.77;70.29;95875.41;5032436;28;20195;-71
2021/05/11 00:33:43;;;;;;;10.93;8.87;;;;;;;14.88;70.20;95881.84;5017028;28;20254;-69
2021/05/11 00:36:09;;;;;;;10.30;9.20;;;;;;;15.06;69.00;95873.22;5032978;28;20282;-70
2021/05/11 00:38:35;;;;;;;12.90;9.93;;;;;;;14.85;69.79;95872.56;5033303;28;20184;-70
2021/05/11 00:41:00;;;;;;;12.47;9.87;;;;;;;15.03;69.18;95868.38;5032960;28;20198;-70
2021/05/11 00:43:26;;;;;;;13.37;10.70;;;;;;;14.63;70.63;95869.38;5033067;28;20678;-70
2021/05/11 00:45:52;;;;;;;12.90;10.47;;;;;;;14.82;70.20;95856.31;5031736;28;20701;-70
2021/05/11 00:48:17;;;;;;;14.47;9.80;;;;;;;14.59;70.52;95853.19;5032912;28;20192;-70
2021/05/11 00:50:44;;;;;;;13.10;10.00;;;;;;;15.04;69.88;95859.44;4997261;28;20531;-70
2021/05/11 00:53:09;;;;;;;17.50;10.57;;;;;;;15.13;68.88;95866.06;5033084;28;20175;-70
2021/05/11 00:55:35;;;;;;;12.00;9.93;;;;;;;15.20;68.77;95869.47;5032870;28;20784;-69
2021/05/11 00:58:01;;;;;;;10.70;8.97;;;;;;;15.10;68.72;95869.16;5032925;28;20266;-71
2021/05/11 01:00:27;;;;;;;11.47;9.20;;;;;;;15.22;68.15;95865.81;5020363;28;20733;-69
2021/05/11 01:02:53;;;;;;;10.83;8.50;;;;;;;15.25;68.38;95870.69;5032928;28;20465;-69
2021/05/11 01:05:18;;;;;;;12.73;9.30;;;;;;;15.39;67.54;95851.03;5033300;28;20196;-70
2021/05/11 01:07:47;;;;;;;9.67;8.20;;;;;;;15.51;67.28;95833.47;5033436;28;20183;-69
2021/05/11 01:10:13;;;;;;;11.70;9.07;;;;;;;15.60;66.85;95827.94;5012199;28;20179;-70
2021/05/11 01:12:39;;;;;;;8.90;8.00;;;;;;;15.43;67.08;95820.56;5004412;28;20442;-69
2021/05/11 01:15:05;;;;;;;11.27;8.77;;;;;;;15.34;67.32;95816.59;5023270;28;20443;-69
2021/05/11 01:17:34;;;;;;;9.40;8.00;;;;;;;15.34;67.36;95812.09;5032657;28;20267;-69
2021/05/11 01:20:03;;;;;;;9.23;7.40;;;;;;;15.04;68.35;95799.59;5024648;28;20427;-69
2021/05/11 01:25:21;;;;;;;8.57;7.30;;;;;;;15.40;67.25;95805.16;5030027;28;20442;-69
2021/05/11 01:47:01;;;;;;;16.20;11.70;;;;;;;14.24;72.36;95818.47;5031699;28;20427;-70
2021/05/11 02:24:20;;;;;;;17.47;11.13;;;;;;;14.80;69.85;95827.53;5022074;28;20495;-70
2021/05/11 02:26:46;;;;;;;17.43;11.10;;;;;;;14.54;71.31;95831.13;5031165;28;20434;-70
2021/05/11 02:29:12;;;;;;;22.40;11.90;;;;;;;14.63;70.92;95823.75;5022930;28;20191;-70
2021/05/11 02:31:37;;;;;;;19.20;11.53;;;;;;;14.54;71.25;95812.66;5039125;28;20231;-69
2021/05/11 02:34:03;;;;;;;21.00;12.67;;;;;;;14.40;71.83;95801.34;5025953;28;20258;-71
2021/05/11 02:36:28;;;;;;;20.17;13.70;;;;;;;14.06;73.49;95796.22;5030771;28;20219;-70
2021/05/11 02:38:54;;;;;;;23.20;14.40;;;;;;;13.90;74.27;95800.16;5030274;28;20241;-69
2021/05/11 02:41:19;;;;;;;47.57;21.30;;;;;;;14.16;73.69;95806.34;5023547;28;20211;-70
2021/05/11 02:43:45;;;;;;;23.67;14.47;;;;;;;14.36;72.31;95816.78;5012658;28;20207;-70
2021/05/11 02:46:11;;;;;;;41.07;16.33;;;;;;;14.55;71.23;95815.06;5030638;28;20211;-70
2021/05/11 02:48:37;;;;;;;43.17;16.53;;;;;;;14.48;71.44;95824.84;5030822;28;20542;-70
2021/05/11 02:51:02;;;;;;;33.97;16.13;;;;;;;14.57;71.07;95825.41;5029862;28;20183;-69
2021/05/11 02:53:28;;;;;;;64.03;20.93;;;;;;;14.31;71.74;95821.06;5030309;28;20183;-71
2021/05/11 02:55:53;;;;;;;24.80;12.73;;;;;;;14.41;72.04;95822.25;5030546;28;20215;-71
2021/05/11 02:58:19;;;;;;;20.80;12.90;;;;;;;14.74;70.61;95813.38;5030374;28;20267;-68
2021/05/11 03:00:45;;;;;;;20.77;11.83;;;;;;;14.80;70.12;95826.75;5030556;28;20184;-69
2021/05/11 03:03:11;;;;;;;17.50;11.47;;;;;;;14.93;69.52;95815.28;5030321;28;20208;-71
2021/05/11 03:05:36;;;;;;;20.83;12.27;;;;;;;14.51;71.11;95823.63;5032965;28;20456;-71
2021/05/11 03:08:02;;;;;;;16.33;11.10;;;;;;;14.42;71.50;95830.94;5012765;28;20223;-69
2021/05/11 03:10:28;;;;;;;26.50;15.70;;;;;;;14.24;72.32;95821.91;5033057;28;20192;-70
2021/05/11 03:12:53;;;;;;;19.03;12.27;;;;;;;14.51;71.27;95816.50;5034034;28;20267;-69
2021/05/11 03:15:19;;;;;;;18.87;12.57;;;;;;;14.72;70.37;95814.63;5033396;28;20207;-69
2021/05/11 03:17:44;;;;;;;18.67;12.20;;;;;;;14.42;71.16;95817.78;5008362;28;20197;-69
2021/05/11 03:20:12;;;;;;;18.17;11.33;;;;;;;14.64;70.25;95818.28;5034076;28;20596;-70
2021/05/11 03:22:38;;;;;;;17.63;11.90;;;;;;;14.33;71.34;95811.13;5033750;28;20745;-69
2021/05/11 03:25:04;;;;;;;18.20;12.43;;;;;;;14.65;70.66;95816.44;5013601;28;20482;-70
2021/05/11 03:27:29;;;;;;;17.83;11.53;;;;;;;14.77;69.70;95798.16;5033465;28;20844;-71
2021/05/11 03:29:55;;;;;;;19.03;12.30;;;;;;;14.70;69.76;95796.34;5034228;28;20468;-68
2021/05/11 03:32:21;;;;;;;18.77;10.80;;;;;;;14.58;70.08;95798.03;5033859;28;20287;-69
2021/05/11 03:34:46;;;;;;;16.37;10.80;;;;;;;14.27;71.90;95792.50;5023860;28;20216;-72
2021/05/11 03:37:12;;;;;;;20.90;11.60;;;;;;;14.26;71.81;95790.88;5030636;28;20195;-71
2021/05/11 03:39:39;;;;;;;22.50;12.27;;;;;;;14.29;72.04;95795.75;5030513;28;20191;-70
2021/05/11 03:42:19;;;;;;;17.13;10.87;;;;;;;14.50;71.08;95783.25;5024729;28;20235;-70
2021/05/11 03:44:49;;;;;;;19.37;11.50;;;;;;;14.13;72.53;95780.41;5020823;28;20442;-69
2021/05/11 03:47:17;;;;;;;18.50;11.73;;;;;;;14.43;71.88;95771.97;5008055;28;20439;-70
2021/05/11 03:49:43;;;;;;;20.13;12.47;;;;;;;14.46;71.49;95781.25;5032641;28;20435;-69
2021/05/11 03:52:09;;;;;;;19.97;12.50;;;;;;;14.21;72.21;95767.00;5027807;28;20423;-69
2021/05/11 03:54:35;;;;;;;22.20;12.20;;;;;;;13.93;73.29;95762.03;5026661;28;20207;-69
2021/05/11 03:57:00;;;;;;;27.60;15.70;;;;;;;14.29;72.54;95773.88;5035335;28;20433;-69
2021/05/11 03:59:26;;;;;;;27.33;14.30;;;;;;;14.33;72.19;95769.78;5018027;28;20807;-69
2021/05/11 04:01:51;;;;;;;21.90;13.30;;;;;;;14.41;71.96;95771.34;5033890;28;20633;-70
2021/05/11 04:04:19;;;;;;;25.87;14.17;;;;;;;14.69;71.17;95778.91;5013756;28;20560;-69
2021/05/11 04:06:45;;;;;;;24.20;14.57;;;;;;;14.80;70.55;95787.97;5022857;28;20643;-69
2021/05/11 04:16:46;;;;;;;29.10;16.33;;;;;;;14.13;73.57;95768.06;5013509;28;20429;-69
2021/05/11 04:19:12;;;;;;;26.40;15.00;;;;;;;14.27;72.98;95765.34;5024153;28;20422;-69
2021/05/11 04:21:38;;;;;;;23.07;14.43;;;;;;;14.70;71.15;95774.47;5026818;28;20435;-70
2021/05/11 04:24:04;;;;;;;28.83;15.53;;;;;;;14.53;71.57;95777.56;5013555;28;20949;-70
2021/05/11 04:26:32;;;;;;;27.43;14.67;;;;;;;14.68;71.16;95765.94;4995358;28;20205;-69
2021/05/11 04:28:57;;;;;;;26.10;15.07;;;;;;;14.29;72.89;95758.84;5020944;28;20790;-70
2021/05/11 04:31:23;;;;;;;25.27;15.10;;;;;;;14.69;71.34;95772.84;5021593;28;20428;-70
2021/05/11 04:33:49;;;;;;;24.97;14.30;;;;;;;14.51;71.42;95766.41;5022919;28;20186;-70
2021/05/11 04:36:15;;;;;;;23.90;15.40;;;;;;;14.56;71.69;95763.97;5027023;28;20621;-70
2021/05/11 04:38:41;;;;;;;24.67;14.60;;;;;;;13.88;74.16;95752.13;4979183;28;20546;-70
2021/05/11 04:41:08;;;;;;;23.07;15.33;;;;;;;14.26;72.65;95753.19;5022620;28;20442;-69
2021/05/11 04:43:35;;;;;;;22.63;14.33;;;;;;;14.09;73.67;95760.78;5026863;28;20866;-70
2021/05/11 04:46:27;;;;;;;29.13;16.13;;;;;;;14.48;72.03;95764.22;5022147;28;20522;-70
2021/05/11 04:48:49;;;;;;;28.23;16.30;;;;;;;14.76;71.42;95765.69;5028445;28;20777;-70
2021/05/11 04:51:15;;;;;;;51.83;21.30;;;;;;;14.59;71.63;95773.28;5014582;28;20427;-70
2021/05/11 04:53:40;;;;;;;54.23;20.60;;;;;;;14.58;71.48;95767.22;5022788;28;20481;-70
2021/05/11 04:56:06;;;;;;;113.87;29.13;;;;;;;14.62;71.69;95774.69;5015368;28;20448;-70
2021/05/11 04:58:32;;;;;;;33.77;18.43;;;;;;;15.00;70.38;95789.66;5020615;28;20186;-70
2021/05/11 05:01:01;;;;;;;27.17;15.50;;;;;;;14.78;70.71;95808.47;5005655;28;20563;-70
2021/05/11 05:03:32;;;;;;;27.53;16.60;;;;;;;14.80;70.95;95816.97;5023615;28;20670;-69
2021/05/11 05:06:00;;;;;;;58.20;24.00;;;;;;;14.43;72.12;95800.94;5029690;28;20442;-70
2021/05/11 05:08:26;;;;;;;51.13;20.90;;;;;;;13.97;74.15;95798.31;5012436;28;20469;-70
2021/05/11 05:10:51;;;;;;;128.63;34.30;;;;;;;14.13;74.13;95791.75;5020202;28;20533;-69
2021/05/11 05:13:21;;;;;;;35.63;20.20;;;;;;;14.35;73.08;95788.03;5015029;28;20477;-69
2021/05/11 05:15:58;;;;;;;27.30;16.80;;;;;;;14.28;73.25;95770.41;5016194;28;20254;-69
2021/05/11 05:18:26;;;;;;;30.70;17.00;;;;;;;14.23;73.39;95751.81;5016518;28;20438;-69
2021/05/11 05:20:52;;;;;;;29.37;18.20;;;;;;;14.51;73.00;95752.44;5015175;28;20459;-68
2021/05/11 05:23:20;;;;;;;32.20;17.67;;;;;;;14.26;73.68;95753.19;5011774;28;20470;-68
2021/05/11 05:25:49;;;;;;;29.67;16.40;;;;;;;14.32;73.46;95783.16;5012610;28;20443;-68
2021/05/11 05:28:15;;;;;;;29.27;17.03;;;;;;;14.14;74.03;95787.28;5011712;28;20480;-69
2021/05/11 05:30:41;;;;;;;32.60;18.00;;;;;;;14.01;74.21;95776.81;5011451;28;20937;-69
2021/05/11 05:33:06;;;;;;;28.83;17.17;;;;;;;14.37;73.13;95775.41;5018509;28;20205;-69
2021/05/11 05:35:35;;;;;;;26.60;16.50;;;;;;;14.69;72.05;95786.03;5020254;28;20675;-69
2021/05/11 05:38:00;;;;;;;24.10;15.90;;;;;;;14.13;73.87;95786.50;5018116;28;20204;-69
2021/05/11 05:40:26;;;;;;;24.57;16.27;;;;;;;14.34;73.08;95781.13;4995936;28;20789;-68
2021/05/11 05:42:52;;;;;;;29.23;16.60;;;;;;;14.53;72.28;95774.13;5026362;28;20231;-69
2021/05/11 05:45:19;;;;;;;24.53;14.30;;;;;;;14.76;71.25;95781.50;5026892;28;20208;-69
2021/05/11 05:47:50;;;;;;;22.83;15.07;;;;;;;14.45;71.43;95793.66;5015331;28;21084;-69
2021/05/11 05:50:27;;;;;;;26.30;15.60;;;;;;;14.38;72.51;95793.69;5029415;28;20420;-70
2021/05/11 05:53:01;;;;;;;21.27;14.90;;;;;;;14.68;71.12;95782.56;5029559;28;20450;-70
2021/05/11 05:55:28;;;;;;;22.10;15.30;;;;;;;14.82;70.36;95791.22;5025680;28;20507;-66
2021/05/11 05:57:53;;;;;;;22.13;14.57;;;;;;;15.18;69.31;95797.63;5034905;28;20430;-65
2021/05/11 06:00:20;;;;;;;18.83;12.90;;;;;;;15.19;68.82;95814.25;5002796;28;20781;-67
2021/05/11 06:02:47;;;;;;;22.43;15.60;;;;;;;14.78;70.56;95807.69;5024837;28;20298;-69
2021/05/11 06:05:14;;;;;;;21.70;14.80;;;;;;;14.91;69.92;95786.50;5023869;28;20446;-68
2021/05/11 06:07:40;;;;;;;25.03;16.00;;;;;;;14.72;70.44;95794.31;5000173;28;20431;-68
2021/05/11 06:10:07;;;;;;;24.57;15.27;;;;;;;14.63;71.08;95794.75;5020313;28;20435;-68
2021/05/11 06:12:55;;;;;;;22.27;14.40;;;;;;;14.80;70.21;95787.97;5025725;28;20476;-67
2021/05/11 06:18:05;;;;;;;19.23;12.87;;;;;;;14.62;71.20;95782.59;5031363;28;20537;-68
2021/05/11 06:20:32;;;;;;;21.40;14.43;;;;;;;14.74;70.99;95779.09;5030781;28;20466;-68
2021/05/11 06:22:57;;;;;;;26.77;15.50;;;;;;;14.48;71.93;95764.22;4977548;28;20204;-67
2021/05/11 06:25:23;;;;;;;24.77;14.27;;;;;;;14.51;71.86;95753.25;5030238;28;20456;-68
2021/05/11 06:27:59;;;;;;;24.10;15.07;;;;;;;15.02;70.35;95745.41;5023406;28;20180;-68
2021/05/11 06:30:24;;;;;;;27.40;16.00;;;;;;;14.86;70.38;95737.03;5023342;28;20183;-69
2021/05/11 06:32:50;;;;;;;23.00;13.13;;;;;;;15.09;69.91;95735.63;5005339;28;20507;-68
2021/05/11 06:35:16;;;;;;;23.90;14.50;;;;;;;15.20;69.31;95747.28;5035040;28;20667;-69
2021/05/11 06:37:41;;;;;;;18.87;13.10;;;;;;;14.92;69.68;95763.53;5007203;28;20199;-68
2021/05/11 06:40:08;;;;;;;20.73;14.03;;;;;;;15.22;68.83;95770.81;5018895;28;20194;-68
2021/05/11 06:42:36;;;;;;;18.13;13.43;;;;;;;15.08;68.93;95765.66;5005045;28;20216;-68
2021/05/11 06:53:17;;;;;;;16.80;12.37;;;;;;;15.15;68.63;95755.84;5002101;28;20928;-69
2021/05/11 06:55:45;;;;;;;18.30;13.73;;;;;;;15.31;68.54;95749.19;5029980;28;20565;-69
2021/05/11 06:58:11;;;;;;;15.27;12.07;;;;;;;15.73;66.87;95745.13;5033683;28;20195;-70
2021/05/11 07:00:43;;;;;;;16.93;12.47;;;;;;;15.49;67.51;95743.16;5017599;28;20484;-68
2021/05/11 07:03:08;;;;;;;19.33;12.33;;;;;;;15.30;68.58;95747.59;5036651;28;20208;-68
2021/05/11 07:05:36;;;;;;;13.90;10.97;;;;;;;16.10;65.58;95740.66;5028602;28;20528;-67
2021/05/11 07:10:54;;;;;;;13.33;10.70;;;;;;;16.59;63.92;95747.72;4997218;28;20434;-67
2021/05/11 07:13:19;;;;;;;14.03;11.10;;;;;;;16.16;64.10;95740.78;5026750;28;20517;-68
2021/05/11 07:15:46;;;;;;;12.77;10.33;;;;;;;15.58;65.65;95737.56;5034062;28;20521;-68
2021/05/11 07:18:20;;;;;;;13.90;10.80;;;;;;;15.89;65.73;95743.75;5025943;28;20188;-69
2021/05/11 07:20:47;;;;;;;13.40;10.60;;;;;;;16.36;64.14;95730.75;5031695;28;20434;-69
2021/05/11 07:23:20;;;;;;;14.13;11.43;;;;;;;16.39;63.80;95740.84;5032903;28;20473;-67
2021/05/11 07:28:49;;;;;;;15.80;12.23;;;;;;;15.82;66.18;95712.09;5026869;28;20456;-68
2021/05/11 07:31:09;;;;;;;16.10;12.50;;;;;;;15.87;65.79;95714.91;5034899;28;20963;-68
2021/05/11 07:33:47;;;;;;;15.13;11.80;;;;;;;15.79;66.18;95715.19;5030759;28;20415;-68
2021/05/11 07:36:13;;;;;;;15.93;11.93;;;;;;;16.04;65.21;95709.81;5018035;28;20450;-68
2021/05/11 07:38:39;;;;;;;15.67;11.30;;;;;;;15.64;66.54;95689.16;5019756;28;20423;-68
2021/05/11 07:41:06;;;;;;;15.47;12.17;;;;;;;15.86;65.97;95680.81;5032055;28;20825;-69
2021/05/11 07:43:33;;;;;;;13.93;11.40;;;;;;;16.19;65.00;95687.47;5033892;28;20450;-68
2021/05/11 07:51:38;;;;;;;11.97;10.50;;;;;;;16.23;64.64;95717.72;5009559;28;20439;-70
2021/05/11 08:15:27;;;;;;;9.47;7.73;;;;;;;16.54;62.08;95739.63;5025029;28;20481;-68
2021/05/11 08:28:43;;;;;;;25.10;13.23;;;;;;;16.77;61.55;95716.91;5032952;28;20509;-69
2021/05/11 08:31:09;;;;;;;11.10;9.33;;;;;;;16.99;61.11;95706.63;5027457;28;20476;-70
2021/05/11 08:33:35;;;;;;;20.50;10.20;;;;;;;17.20;60.44;95710.53;5017547;28;20184;-69
2021/05/11 08:36:00;;;;;;;130.73;39.90;;;;;;;16.45;62.49;95690.78;5006836;28;20479;-68
2021/05/11 08:38:26;;;;;;;66.37;20.50;;;;;;;15.97;64.42;95672.13;5024641;28;20215;-70
2021/05/11 08:40:52;;;;;;;18.63;10.10;;;;;;;16.26;62.89;95651.19;5033533;28;20190;-68
2021/05/11 08:43:27;;;;;;;37.40;14.70;;;;;;;16.53;62.97;95653.41;4988588;28;20270;-67
2021/05/11 08:45:54;;;;;;;72.53;21.00;;;;;;;16.63;61.50;95664.25;5030213;28;20554;-68
2021/05/11 08:48:20;;;;;;;119.53;35.53;;;;;;;17.02;60.83;95677.84;5032307;28;20433;-68
2021/05/11 08:50:51;;;;;;;9.60;6.00;;;;;;;17.16;59.72;95683.75;5015304;28;20427;-68
2021/05/11 09:24:35;;;;;;;60.73;18.10;;;;;;;17.78;57.86;95711.50;5013614;28;20462;-69
2021/05/11 10:47:09;;;;;;;10.67;8.70;;;;;;;18.91;53.82;95716.41;5084014;28;20447;-70
2021/05/11 10:49:38;;;;;;;12.97;9.50;;;;;;;19.12;53.18;95702.44;5085503;28;20551;-70
2021/05/11 10:55:05;;;;;;;12.40;8.13;;;;;;;18.97;53.04;95710.16;5093420;28;20433;-69
2021/05/11 10:57:55;;;;;;;11.30;8.83;;;;;;;18.51;53.98;95713.66;5083166;28;20424;-69
2021/05/11 11:03:16;;;;;;;10.47;9.33;;;;;;;19.32;52.47;95717.03;5093096;28;20458;-71
2021/05/11 11:06:00;;;;;;;12.40;9.20;;;;;;;19.67;51.56;95713.25;5086848;28;20449;-70
2021/05/11 11:08:44;;;;;;;11.17;9.07;;;;;;;19.64;52.45;95724.41;5086323;28;20456;-70
2021/05/11 11:11:17;;;;;;;14.97;10.97;;;;;;;19.60;51.60;95716.09;5093656;28;20596;-71
2021/05/11 11:13:44;;;;;;;12.07;10.17;;;;;;;19.40;51.76;95719.31;5079863;28;20576;-71
2021/05/11 11:16:10;;;;;;;15.17;10.10;;;;;;;19.01;53.57;95716.63;5073539;28;20917;-70
2021/05/11 11:18:37;;;;;;;9.73;8.27;;;;;;;19.89;51.64;95710.63;5094040;28;20461;-70
2021/05/11 11:23:54;;;;;;;11.17;8.17;;;;;;;20.14;50.03;95706.66;5097016;28;21117;-69
2021/05/11 11:26:27;;;;;;;12.27;7.40;;;;;;;19.04;52.86;95710.78;5093439;28;20458;-71
2021/05/11 11:29:04;;;;;;;7.77;7.07;;;;;;;20.49;48.70;95696.63;5093249;28;21036;-72
2021/05/11 11:31:34;;;;;;;9.43;7.10;;;;;;;20.37;49.44;95702.91;5076475;28;20444;-70
2021/05/11 11:34:36;;;;;;;8.17;6.53;;;;;;;20.66;49.03;95701.81;5092283;28;20804;-72
2021/05/11 11:37:11;;;;;;;7.63;6.97;;;;;;;20.84;48.76;95703.31;5096964;28;20847;-71
2021/05/11 11:39:42;;;;;;;7.17;6.43;;;;;;;21.16;48.14;95708.63;5088430;28;20425;-68
2021/05/11 11:42:17;;;;;;;7.07;6.10;;;;;;;21.01;48.32;95725.28;5090514;28;20420;-70
2021/05/11 11:44:42;;;;;;;13.13;5.77;;;;;;;21.44;47.34;95743.13;5071274;28;20533;-69
2021/05/11 11:47:10;;;;;;;5.73;5.23;;;;;;;21.88;45.99;95750.88;5091323;28;20420;-70
2021/05/11 11:49:40;;;;;;;5.50;5.00;;;;;;;21.82;45.70;95748.44;5094647;28;20264;-71
2021/05/11 11:52:14;;;;;;;5.43;5.03;;;;;;;22.12;44.63;95744.28;5091509;28;20649;-70
2021/05/11 12:00:06;;;;;;;4.87;4.47;;;;;;;22.54;43.97;95738.84;5093175;28;20475;-70
2021/05/11 12:02:32;;;;;;;4.40;4.10;;;;;;;22.08;44.94;95728.00;5076793;28;20754;-70
2021/05/11 12:05:13;;;;;;;4.43;4.13;;;;;;;20.94;46.25;95724.69;5092354;28;20443;-72
2021/05/11 12:10:27;;;;;;;4.37;4.07;;;;;;;20.99;47.65;95727.41;5092904;28;20554;-70
2021/05/11 12:12:54;;;;;;;4.40;4.00;;;;;;;21.47;46.32;95710.66;5086476;28;20937;-70
2021/05/11 12:15:21;;;;;;;3.40;3.10;;;;;;;21.35;46.93;95708.22;5069612;28;20508;-70
2021/05/11 12:18:13;;;;;;;3.83;3.50;;;;;;;20.79;47.96;95706.75;5093059;28;20500;-70
2021/05/11 12:20:39;;;;;;;3.37;3.00;;;;;;;20.50;49.89;95724.84;5081734;28;20807;-71
2021/05/11 12:23:05;;;;;;;3.07;2.83;;;;;;;20.01;51.21;95720.31;5074606;28;20455;-70
2021/05/11 12:25:30;;;;;;;3.40;2.70;;;;;;;20.23;50.58;95720.31;5075771;28;20706;-68
2021/05/11 12:27:57;;;;;;;2.13;1.93;;;;;;;20.12;51.46;95738.00;5089541;28;20206;-71
2021/05/11 12:30:42;;;;;;;2.50;2.30;;;;;;;20.52;50.34;95746.66;5091637;28;20638;-70
2021/05/11 12:33:13;;;;;;;2.43;2.23;;;;;;;20.25;50.84;95756.22;5092069;28;20416;-70
2021/05/11 12:35:42;;;;;;;2.97;1.97;;;;;;;20.64;49.93;95752.63;5090612;28;20512;-69
2021/05/11 12:38:18;;;;;;;2.50;2.30;;;;;;;20.85;49.46;95752.84;5092218;28;20435;-70
2021/05/11 12:43:41;;;;;;;4.90;2.90;;;;;;;19.99;52.03;95756.97;5081658;28;20401;-70
2021/05/11 12:46:18;;;;;;;3.20;2.70;;;;;;;19.63;53.17;95758.13;5072281;28;20454;-70
2021/05/11 12:49:00;;;;;;;2.57;2.20;;;;;;;19.05;54.63;95760.19;5091531;28;20482;-70
2021/05/11 12:51:27;;;;;;;3.30;2.67;;;;;;;19.32;54.04;95759.53;5060381;28;20502;-70
2021/05/11 12:53:55;;;;;;;3.30;2.80;;;;;;;19.32;54.43;95751.56;5091489;28;20913;-70
2021/05/11 12:56:44;;;;;;;2.53;2.33;;;;;;;19.39;53.92;95743.44;5083158;28;20448;-70
2021/05/11 12:59:15;;;;;;;2.63;2.43;;;;;;;19.03;55.10;95755.13;5081097;28;20501;-73
2021/05/11 13:25:45;;;;;;;3.40;3.20;;;;;;;17.22;60.05;95790.53;5079692;28;20453;-70
2021/05/11 13:35:31;;;;;;;5.83;5.40;;;;;;;16.83;62.28;95806.75;5095305;28;20467;-71
2021/05/11 13:37:57;;;;;;;5.90;5.50;;;;;;;17.00;61.89;95812.25;5094391;28;20416;-71
2021/05/11 13:40:23;;;;;;;6.50;6.00;;;;;;;17.13;61.60;95813.09;5094321;28;20560;-71
2021/05/11 13:42:48;;;;;;;7.17;6.47;;;;;;;17.27;62.01;95824.25;5093489;28;20211;-71
2021/05/11 13:45:14;;;;;;;13.63;9.80;;;;;;;17.09;62.92;95814.56;5077867;28;20703;-70
2021/05/11 13:47:41;;;;;;;16.40;8.00;;;;;;;16.74;64.39;95819.53;5062239;28;20719;-71
2021/05/11 13:50:12;;;;;;;8.90;8.00;;;;;;;16.58;64.54;95826.22;5089308;28;20232;-71
2021/05/11 13:52:38;;;;;;;10.93;9.93;;;;;;;16.36;66.06;95828.56;5075531;28;20531;-70
2021/05/11 13:55:09;;;;;;;9.93;9.07;;;;;;;16.62;64.96;95823.16;5075027;28;20571;-70
2021/05/11 14:02:49;;;;;;;7.77;6.33;;;;;;;16.69;65.18;95816.72;5091827;28;20611;-71
2021/05/11 14:05:16;;;;;;;7.60;6.80;;;;;;;16.32;65.76;95816.81;5090712;28;20461;-71
2021/05/11 14:07:42;;;;;;;6.70;6.10;;;;;;;16.21;67.06;95826.28;5090746;28;20481;-73
2021/05/11 14:10:08;;;;;;;8.67;6.40;;;;;;;16.15;66.82;95819.25;5092194;28;20515;-70
2021/05/11 14:12:34;;;;;;;7.00;5.80;;;;;;;15.62;67.97;95828.53;5093033;28;20497;-70
2021/05/11 14:15:00;;;;;;;5.90;5.40;;;;;;;15.98;67.73;95816.41;5077867;28;20441;-72
2021/05/11 14:17:25;;;;;;;7.13;5.80;;;;;;;16.02;67.25;95814.91;5095385;28;20182;-71
2021/05/11 14:19:51;;;;;;;5.60;5.10;;;;;;;15.71;68.23;95826.41;5092529;28;20189;-70
2021/05/11 14:22:20;;;;;;;6.60;6.00;;;;;;;15.60;69.09;95830.56;5095168;28;20185;-69
2021/05/11 14:24:47;;;;;;;6.27;5.67;;;;;;;15.56;69.19;95830.22;5093514;28;20198;-71
2021/05/11 14:27:13;;;;;;;6.60;5.63;;;;;;;15.72;69.52;95820.91;5092923;28;20506;-75
2021/05/11 14:29:39;;;;;;;6.70;5.20;;;;;;;15.64;70.28;95816.72;5089107;28;20463;-70
2021/05/11 14:32:05;;;;;;;6.00;5.40;;;;;;;15.97;68.23;95820.06;5093068;28;20511;-72
2021/05/11 14:34:30;;;;;;;6.07;5.47;;;;;;;15.88;69.52;95829.31;5093752;28;20192;-72
2021/05/11 14:36:56;;;;;;;5.97;5.17;;;;;;;15.60;69.67;95820.81;5091875;28;20443;-72
2021/05/11 14:39:22;;;;;;;5.80;5.13;;;;;;;15.74;70.07;95818.03;5094328;28;20257;-71
2021/05/11 14:41:53;;;;;;;10.17;5.23;;;;;;;15.56;70.39;95808.25;5077765;28;20203;-70
2021/05/11 14:44:19;;;;;;;8.70;5.90;;;;;;;15.33;72.04;95810.50;5088063;28;20428;-70
2021/05/11 14:46:45;;;;;;;7.10;5.73;;;;;;;15.51;71.16;95807.06;5084465;28;20455;-71
2021/05/11 14:49:10;;;;;;;7.50;6.33;;;;;;;15.53;71.62;95809.53;5092791;28;20447;-71
2021/05/11 14:51:37;;;;;;;8.53;5.90;;;;;;;15.38;71.96;95807.19;5094316;28;20706;-70
2021/05/11 14:54:03;;;;;;;7.37;6.57;;;;;;;15.34;72.38;95816.59;5075427;28;20187;-71
2021/05/11 14:56:29;;;;;;;6.00;5.40;;;;;;;15.04;72.80;95822.50;5074919;28;20460;-72
2021/05/11 14:58:54;;;;;;;7.37;6.37;;;;;;;15.31;72.74;95822.28;5093733;28;20440;-72
2021/05/11 15:01:20;;;;;;;6.87;5.80;;;;;;;15.23;72.54;95823.38;5078550;28;20178;-70
2021/05/11 15:03:45;;;;;;;7.57;5.40;;;;;;;15.18;73.53;95821.38;5101632;28;20178;-70
2021/05/11 15:06:11;;;;;;;9.07;5.77;;;;;;;15.21;72.84;95830.69;5097225;28;20201;-70
2021/05/11 15:08:36;;;;;;;9.73;4.30;;;;;;;15.22;72.78;95834.94;5096505;28;20193;-71
2021/05/11 15:11:02;;;;;;;5.07;4.10;;;;;;;15.20;72.69;95843.09;5092326;28;20186;-71
2021/05/11 15:13:28;;;;;;;5.30;4.77;;;;;;;15.37;72.67;95845.19;5079569;28;20185;-70
2021/05/11 15:15:55;;;;;;;9.07;4.27;;;;;;;15.39;72.76;95848.41;5083799;28;20513;-71
2021/05/11 15:18:21;;;;;;;5.40;4.07;;;;;;;15.09;72.80;95846.41;5074834;28;20178;-73
2021/05/11 15:20:47;;;;;;;6.10;3.60;;;;;;;14.96;73.37;95846.50;5091907;28;20457;-69
2021/05/11 15:23:13;;;;;;;3.57;3.23;;;;;;;14.87;73.26;95854.66;5091922;28;20173;-70
2021/05/11 15:25:39;;;;;;;3.27;2.70;;;;;;;14.90;73.28;95851.59;5075728;28;20596;-70
2021/05/11 15:28:04;;;;;;;2.60;2.20;;;;;;;14.96;72.41;95855.22;5084695;28;20660;-71
2021/05/11 15:30:31;;;;;;;5.47;2.47;;;;;;;15.02;72.77;95850.91;5093375;28;20428;-71
2021/05/11 15:32:58;;;;;;;1.80;1.57;;;;;;;14.71;72.82;95866.53;5093451;28;20185;-68
2021/05/11 15:35:32;;;;;;;2.93;2.27;;;;;;;14.83;73.16;95861.41;5092079;28;20442;-71
2021/05/11 15:37:59;;;;;;;4.57;3.40;;;;;;;15.00;73.57;95860.88;5091427;28;20415;-71
2021/05/11 15:40:36;;;;;;;1.70;1.40;;;;;;;14.70;73.07;95864.09;5093312;28;20404;-71
2021/05/11 15:43:06;;;;;;;2.90;1.30;;;;;;;14.96;72.62;95855.22;5090428;28;20427;-71
2021/05/11 15:45:32;;;;;;;1.50;1.40;;;;;;;14.98;73.31;95866.38;5064650;28;20505;-71
2021/05/11 15:48:01;;;;;;;3.17;1.50;;;;;;;15.12;73.07;95877.63;5092737;28;20440;-71
2021/05/11 15:50:33;;;;;;;1.47;1.33;;;;;;;15.12;72.44;95872.34;5093169;28;20814;-70
2021/05/11 15:53:02;;;;;;;4.50;1.90;;;;;;;15.17;72.02;95887.56;5091566;28;20427;-71
2021/05/11 15:55:29;;;;;;;1.70;1.30;;;;;;;15.14;72.57;95899.34;5072243;28;20440;-70
2021/05/11 15:57:55;;;;;;;1.63;1.13;;;;;;;15.30;72.29;95903.31;5092521;28;20411;-71
2021/05/11 16:00:21;;;;;;;1.30;1.10;;;;;;;14.95;72.49;95903.72;5092639;28;20912;-71
2021/05/11 16:02:48;;;;;;;2.60;1.20;;;;;;;14.59;73.86;95905.91;5092777;28;20181;-71
2021/05/11 16:05:13;;;;;;;3.37;2.37;;;;;;;14.85;73.98;95916.56;5092186;28;20436;-71
2021/05/11 16:07:39;;;;;;;1.30;1.10;;;;;;;14.74;73.86;95916.22;5094259;28;20529;-70
2021/05/11 16:10:07;;;;;;;1.87;1.00;;;;;;;15.09;72.57;95919.47;5094207;28;20220;-71
2021/05/11 16:12:33;;;;;;;1.60;1.50;;;;;;;15.16;72.04;95918.41;5091964;28;20443;-72
2021/05/11 16:15:00;;;;;;;2.10;1.63;;;;;;;15.22;71.05;95929.16;5076081;28;20880;-71